createdAt,value
2022-10-23T00:02:29.578Z,100698
2022-10-23T00:12:29.768Z,100706
2022-10-23T00:17:29.515Z,100706
2022-10-23T00:22:29.792Z,100715
2022-10-23T00:27:29.566Z,100714
2022-10-23T00:32:29.628Z,100713
2022-10-23T00:37:29.837Z,100716
2022-10-23T00:42:29.657Z,100726
2022-10-23T00:47:29.552Z,100731
2022-10-23T00:52:29.590Z,100734
2022-10-23T00:57:29.786Z,100734
2022-10-23T01:02:29.661Z,100740
2022-10-23T01:07:29.571Z,100740
2022-10-23T01:12:29.894Z,100760
2022-10-23T01:17:29.554Z,100763
2022-10-23T01:22:29.631Z,100766
2022-10-23T01:27:29.695Z,100763
2022-10-23T01:32:29.735Z,100766
2022-10-23T01:37:29.588Z,100776
2022-10-23T01:42:29.874Z,100776
2022-10-23T01:47:29.567Z,100778
2022-10-23T01:52:29.615Z,100772
2022-10-23T01:57:29.899Z,100772
2022-10-23T02:02:29.675Z,100783
2022-10-23T02:07:29.889Z,100786
2022-10-23T02:12:29.683Z,100781
2022-10-23T02:17:29.595Z,100785
2022-10-23T02:22:29.615Z,100785
2022-10-23T02:27:29.580Z,100783
2022-10-23T02:32:29.610Z,100777
2022-10-23T02:37:29.638Z,100777
2022-10-23T02:42:29.585Z,100788
2022-10-23T02:47:29.646Z,100790
2022-10-23T02:52:30.062Z,100790
2022-10-23T02:57:29.635Z,100798
2022-10-23T03:02:29.667Z,100800
2022-10-23T03:07:29.704Z,100806
2022-10-23T03:12:29.637Z,100813
2022-10-23T03:17:29.622Z,100811
2022-10-23T03:22:29.820Z,100821
2022-10-23T03:32:29.630Z,100825
2022-10-23T03:37:29.908Z,100815
2022-10-23T03:42:29.613Z,100819
2022-10-23T03:47:29.632Z,100830
2022-10-23T03:52:29.717Z,100830
2022-10-23T03:57:30.147Z,100842
2022-10-23T04:02:29.727Z,100846
2022-10-23T04:07:29.669Z,100842
2022-10-23T04:12:30.152Z,100842
2022-10-23T04:17:29.625Z,100849
2022-10-23T04:22:29.919Z,100843
2022-10-23T04:27:29.744Z,100830
2022-10-23T04:32:29.684Z,100829
2022-10-23T04:37:29.648Z,100818
2022-10-23T04:42:29.891Z,100826
2022-10-23T04:47:29.636Z,100829
2022-10-23T04:52:29.822Z,100828
2022-10-23T04:57:29.970Z,100829
2022-10-23T05:07:29.960Z,100841
2022-10-23T05:12:29.665Z,100841
2022-10-23T05:17:29.880Z,100845
2022-10-23T05:22:29.663Z,100844
2022-10-23T05:27:29.697Z,100844
2022-10-23T05:32:29.656Z,100846
2022-10-23T05:37:29.877Z,100853
2022-10-23T05:42:30.015Z,100853
2022-10-23T05:47:29.656Z,100858
2022-10-23T05:52:29.986Z,100870
2022-10-23T05:57:29.666Z,100874
2022-10-23T06:02:29.784Z,100874
2022-10-23T06:07:32.317Z,100878
2022-10-23T06:12:29.927Z,100896
2022-10-23T06:17:29.675Z,100905
2022-10-23T06:22:29.898Z,100894
2022-10-23T06:27:29.687Z,100901
2022-10-23T06:32:29.736Z,100900
2022-10-23T06:37:29.985Z,100900
2022-10-23T06:42:29.787Z,100900
2022-10-23T06:47:29.730Z,100914
2022-10-23T06:52:45.955Z,100914
2022-10-23T06:57:29.743Z,100924
2022-10-23T07:02:29.733Z,100926
2022-10-23T07:07:29.981Z,100925
2022-10-23T07:12:29.766Z,100925
2022-10-23T07:17:29.807Z,100925
2022-10-23T07:22:29.715Z,100943
2022-10-23T07:27:29.861Z,100943
2022-10-23T07:32:29.709Z,100944
2022-10-23T07:37:29.798Z,100945
2022-10-23T07:42:30.013Z,100941
2022-10-23T07:47:29.742Z,100936
2022-10-23T07:52:32.123Z,100925
2022-10-23T07:57:29.747Z,100925
2022-10-23T08:02:29.854Z,100943
2022-10-23T08:07:29.714Z,100946
2022-10-23T08:12:29.790Z,100946
2022-10-23T08:17:29.759Z,100949
2022-10-23T08:22:29.846Z,100935
2022-10-23T08:27:29.958Z,100938
2022-10-23T08:32:29.741Z,100938
2022-10-23T08:37:29.981Z,100933
2022-10-23T08:42:30.111Z,100931
2022-10-23T08:47:29.770Z,100936
2022-10-23T08:52:30.066Z,100927
2022-10-23T08:57:30.211Z,100927
2022-10-23T09:02:29.772Z,100932
2022-10-23T09:07:29.868Z,100933
2022-10-23T09:12:29.766Z,100926
2022-10-23T09:17:29.840Z,100934
2022-10-23T09:22:29.996Z,100934
2022-10-23T09:27:29.758Z,100932
2022-10-23T09:32:29.787Z,100939
2022-10-23T09:37:30.083Z,100936
2022-10-23T09:42:29.822Z,100931
2022-10-23T09:47:29.797Z,100926
2022-10-23T09:52:29.880Z,100926
2022-10-23T09:57:30.027Z,100940
2022-10-23T10:02:29.773Z,100933
2022-10-23T10:07:32.186Z,100934
2022-10-23T10:12:29.819Z,100934
2022-10-23T10:17:29.839Z,100927
2022-10-23T10:22:29.837Z,100907
2022-10-23T10:27:29.826Z,100907
2022-10-23T10:32:29.924Z,100888
2022-10-23T10:37:29.802Z,100881
2022-10-23T10:42:30.042Z,100881
2022-10-23T10:47:29.837Z,100879
2022-10-23T10:52:30.021Z,100874
2022-10-23T10:57:30.153Z,100874
2022-10-23T11:02:29.828Z,100864
2022-10-23T11:07:29.857Z,100858
2022-10-23T11:12:29.997Z,100858
2022-10-23T11:17:30.029Z,100843
2022-10-23T11:22:29.940Z,100837
2022-10-23T11:27:30.071Z,100831
2022-10-23T11:32:29.875Z,100826
2022-10-23T11:42:30.425Z,100830
2022-10-23T11:47:29.855Z,100830
2022-10-23T11:52:30.119Z,100823
2022-10-23T12:02:29.953Z,100813
2022-10-23T12:07:30.070Z,100816
2022-10-23T12:12:30.084Z,100816
2022-10-23T12:17:29.849Z,100815
2022-10-23T12:22:30.293Z,100798
2022-10-23T12:27:30.168Z,100798
2022-10-23T12:32:29.888Z,100798
2022-10-23T12:37:29.880Z,100777
2022-10-23T12:42:29.963Z,100775
2022-10-23T12:47:30.302Z,100768
2022-10-23T12:52:29.890Z,100768
2022-10-23T12:57:29.909Z,100762
2022-10-23T13:02:30.193Z,100761
2022-10-23T13:07:30.027Z,100759
2022-10-23T13:12:30.286Z,100754
2022-10-23T13:17:29.917Z,100753
2022-10-23T13:27:30.018Z,100742
2022-10-23T13:32:29.925Z,100733
2022-10-23T13:37:29.937Z,100731
2022-10-23T13:47:30.898Z,100726
2022-10-23T13:52:30.145Z,100725
2022-10-23T13:57:30.235Z,100708
2022-10-23T14:02:30.005Z,100704
2022-10-23T14:07:30.187Z,100703
2022-10-23T14:12:30.007Z,100703
2022-10-23T14:22:29.926Z,100698
2022-10-23T14:27:30.154Z,100696
2022-10-23T14:32:30.014Z,100690
2022-10-23T14:37:30.294Z,100686
2022-10-23T14:42:33.771Z,100683
2022-10-23T14:47:30.151Z,100683
2022-10-23T14:52:29.927Z,100667
2022-10-23T14:57:30.255Z,100667
2022-10-23T15:02:30.151Z,100668
2022-10-23T15:07:30.049Z,100670
2022-10-23T15:17:29.952Z,100663
2022-10-23T15:22:30.311Z,100643
2022-10-23T15:27:29.966Z,100643
2022-10-23T15:32:30.016Z,100629
2022-10-23T15:37:30.194Z,100627
2022-10-23T15:47:30.006Z,100646
2022-10-23T15:52:30.025Z,100654
2022-10-23T15:57:30.406Z,100652
2022-10-23T16:02:30.323Z,100655
2022-10-23T16:07:30.138Z,100650
2022-10-23T16:12:29.991Z,100650
2022-10-23T16:17:30.197Z,100662
2022-10-23T16:22:30.275Z,100684
2022-10-23T16:27:30.096Z,100681
2022-10-23T16:32:30.003Z,100695
2022-10-23T16:42:30.460Z,100697
2022-10-23T16:47:30.244Z,100701
2022-10-23T16:52:30.104Z,100694
2022-10-23T16:57:30.281Z,100694
2022-10-23T17:02:30.414Z,100694
2022-10-23T17:07:30.341Z,100708
2022-10-23T17:17:30.454Z,100718
2022-10-23T17:22:30.352Z,100698
2022-10-23T17:27:30.485Z,100699
2022-10-23T17:32:30.266Z,100699
2022-10-23T17:37:30.325Z,100685
2022-10-23T17:42:30.306Z,100676
2022-10-23T17:47:30.245Z,100676
2022-10-23T17:52:30.306Z,100690
2022-10-23T17:57:31.575Z,100667
2022-10-23T18:02:30.401Z,100667
2022-10-23T18:07:30.922Z,100674
2022-10-23T18:12:30.504Z,100674
2022-10-23T18:17:30.286Z,100674
2022-10-23T18:22:30.482Z,100679
2022-10-23T18:27:30.610Z,100683
2022-10-23T18:37:33.897Z,100680
2022-10-23T18:42:30.415Z,100672
2022-10-23T18:47:30.061Z,100672
2022-10-23T18:52:31.743Z,100666
2022-10-23T18:57:32.349Z,100670
2022-10-23T19:02:31.454Z,100670
2022-10-23T19:07:30.240Z,100674
2022-10-23T19:12:30.851Z,100677
2022-10-23T19:17:30.317Z,100683
2022-10-23T19:27:30.346Z,100678
2022-10-23T19:32:30.081Z,100685
2022-10-23T19:37:30.398Z,100681
2022-10-23T19:42:30.540Z,100664
2022-10-23T19:47:30.446Z,100664
2022-10-23T19:52:30.428Z,100676
2022-10-23T20:12:30.375Z,100691
2022-10-23T20:22:30.385Z,100682
2022-10-23T20:27:30.330Z,100682
2022-10-23T20:32:30.263Z,100680
2022-10-23T20:37:30.461Z,100672
2022-10-23T20:42:30.602Z,100678
2022-10-23T20:47:30.770Z,100670
2022-10-23T20:52:30.249Z,100644
2022-10-23T20:57:30.420Z,100644
2022-10-23T21:02:30.127Z,100647
2022-10-23T21:07:30.188Z,100629
2022-10-23T21:12:30.361Z,100627
2022-10-23T21:22:30.364Z,100629
2022-10-23T21:27:30.436Z,100621
2022-10-23T21:32:30.143Z,100621
2022-10-23T21:37:30.396Z,100631
2022-10-23T21:42:30.286Z,100626
2022-10-23T21:47:30.157Z,100626
2022-10-23T21:52:30.226Z,100640
2022-10-23T22:02:30.246Z,100629
2022-10-23T22:07:30.323Z,100627
2022-10-23T22:12:30.460Z,100629
2022-10-23T22:17:30.244Z,100629
2022-10-23T22:22:30.401Z,100633
2022-10-23T22:32:30.169Z,100635
2022-10-23T22:37:30.195Z,100635
2022-10-23T22:42:30.153Z,100649
2022-10-23T22:47:30.170Z,100649
2022-10-23T22:52:30.183Z,100638
2022-10-23T22:57:30.193Z,100642
2022-10-23T23:02:30.178Z,100628
2022-10-23T23:07:30.202Z,100622
2022-10-23T23:12:30.166Z,100622
2022-10-23T23:17:30.182Z,100625
2022-10-23T23:22:30.255Z,100622
2022-10-23T23:27:30.380Z,100618
2022-10-23T23:32:30.175Z,100627
2022-10-23T23:37:30.208Z,100623
2022-10-23T23:42:30.386Z,100627
2022-10-23T23:47:30.214Z,100606
2022-10-23T23:52:30.459Z,100598
2022-10-23T23:57:30.251Z,100598
